CYYJ/YYJ METAR and TAF weather

Enter ICAO airport designator
Station Type Date Time Source
CYYJ METAR 2019/07/20 05:00 UTC NOAA

CYYJ 200500Z 06003KT 30SM FEW050 15/09 A3011 RMK SC1 SC TR SLP199


Station Type Date Time Source
CYYJ Decoded METAR 2019/07/20 05:00 UTC NOAA

Victoria Int. Airport, B. C., Canada (CYYJ) 48-39N 123-26W 19M
Jul 20, 2019 - 01:00 AM EDT / 2019.07.20 0500 UTC
Wind: from the ENE (060 degrees) at 3 MPH (3 KT):0
Visibility: 30 mile(s):0
Sky conditions: mostly clear
Temperature: 59 F (15 C)
Dew Point: 48 F (9 C)
Relative Humidity: 67%
Pressure (altimeter): 30.11 in. Hg (1019 hPa)
ob: CYYJ 200500Z 06003KT 30SM FEW050 15/09 A3011 RMK SC1 SC TR SLP199
cycle: 5

Station Type Date Time Source
CYYJ TAF 2019/07/19 18:42 UTC NOAA

TAF CYYJ 191739Z 1918/2018 10007KT P6SM FEW030
BECMG 2004/2006 27005KT
RMK NXT FCST BY 200000Z

Example: see airport list